createdAt,value
2022-08-22T00:01:20.722Z,1.70
2022-08-22T00:03:00.777Z,0.80
2022-08-22T00:03:06.691Z,1.17
2022-08-22T00:04:03.565Z,1.55
2022-08-22T00:06:30.264Z,1.70
2022-08-22T00:09:14.016Z,1.38
2022-08-22T00:11:46.723Z,1.67
2022-08-22T00:14:13.341Z,1.67
2022-08-22T00:16:48.960Z,1.40
2022-08-22T00:19:30.505Z,2.15
2022-08-22T00:21:57.833Z,1.50
2022-08-22T00:24:33.535Z,1.70
2022-08-22T00:27:04.315Z,1.92
2022-08-22T00:29:51.279Z,1.80
2022-08-22T00:32:32.300Z,1.80
2022-08-22T00:35:01.381Z,1.83
2022-08-22T00:37:32.035Z,1.67
2022-08-22T00:40:03.137Z,1.80
2022-08-22T00:42:53.172Z,2.67
2022-08-22T00:45:38.633Z,2.00
2022-08-22T00:48:05.630Z,1.63
2022-08-22T00:50:51.209Z,1.80
2022-08-22T00:53:30.200Z,2.00
2022-08-22T00:56:11.913Z,1.90
2022-08-22T00:58:38.490Z,1.90
2022-08-22T01:01:09.902Z,1.85
2022-08-22T01:03:48.653Z,1.83
2022-08-22T01:06:27.312Z,1.83
2022-08-22T01:09:00.858Z,1.77
2022-08-22T01:11:53.856Z,1.70
2022-08-22T01:14:34.886Z,2.05
2022-08-22T01:17:08.243Z,1.73
2022-08-22T01:19:44.061Z,1.77
2022-08-22T01:22:25.792Z,1.65
2022-08-22T01:25:17.031Z,2.03
2022-08-22T01:27:58.269Z,1.85
2022-08-22T01:30:28.420Z,2.08
2022-08-22T01:33:10.166Z,2.20
2022-08-22T01:35:45.918Z,2.13
2022-08-22T01:38:31.671Z,1.77
2022-08-22T01:40:58.300Z,1.73
2022-08-22T01:43:59.343Z,1.88
2022-08-22T01:46:26.074Z,1.98
2022-08-22T01:48:55.775Z,2.15
2022-08-22T01:51:28.367Z,2.40
2022-08-22T01:54:21.984Z,2.58
2022-08-22T01:56:48.910Z,2.00
2022-08-22T01:59:33.959Z,1.90
2022-08-22T02:02:11.731Z,1.60
2022-08-22T02:04:41.374Z,1.88
2022-08-22T02:07:07.976Z,2.20
2022-08-22T02:09:34.526Z,2.28
2022-08-22T02:12:21.774Z,2.03
2022-08-22T02:14:54.931Z,2.17
2022-08-22T02:17:35.705Z,2.35
2022-08-22T02:20:17.755Z,2.15
2022-08-22T02:22:59.869Z,2.08
2022-08-22T02:25:30.298Z,2.45
2022-08-22T02:28:08.611Z,1.73
2022-08-22T02:31:01.281Z,1.83
2022-08-22T02:33:40.604Z,2.03
2022-08-22T02:36:14.587Z,2.10
2022-08-22T02:38:48.327Z,1.95
2022-08-22T02:41:33.618Z,1.83
2022-08-22T02:44:19.076Z,2.10
2022-08-22T02:46:46.955Z,2.30
2022-08-22T02:49:33.272Z,1.88
2022-08-22T02:52:08.378Z,1.98
2022-08-22T02:54:45.960Z,2.20
2022-08-22T02:57:17.103Z,2.20
2022-08-22T03:00:04.339Z,2.30
2022-08-22T03:02:39.997Z,2.22
2022-08-22T03:05:18.886Z,2.45
2022-08-22T03:07:50.476Z,2.30
2022-08-22T03:10:23.360Z,2.00
2022-08-22T03:12:57.742Z,2.35
2022-08-22T03:15:39.797Z,2.15
2022-08-22T03:18:18.196Z,2.08
2022-08-22T03:20:59.180Z,2.50
2022-08-22T03:23:37.847Z,2.65
2022-08-22T03:26:13.104Z,2.53
2022-08-22T03:29:00.005Z,2.35
2022-08-22T03:31:27.989Z,2.10
2022-08-22T03:34:13.777Z,2.20
2022-08-22T03:36:45.703Z,2.40
2022-08-22T03:39:18.438Z,2.60
2022-08-22T03:41:54.671Z,2.63
2022-08-22T03:44:32.160Z,2.42
2022-08-22T03:47:01.849Z,2.55
2022-08-22T03:49:43.766Z,2.92
2022-08-22T03:52:22.582Z,2.38
2022-08-22T03:55:18.579Z,2.30
2022-08-22T03:57:45.180Z,2.88
2022-08-22T04:00:19.598Z,2.20
2022-08-22T04:02:52.057Z,2.33
2022-08-22T04:05:27.646Z,2.63
2022-08-22T04:08:00.645Z,2.58
2022-08-22T04:10:46.164Z,2.33
2022-08-22T04:13:15.556Z,2.33
2022-08-22T04:15:48.396Z,2.33
2022-08-22T04:18:33.633Z,2.50
2022-08-22T04:21:19.211Z,2.40
2022-08-22T04:23:48.686Z,2.35
2022-08-22T04:26:33.832Z,2.97
2022-08-22T04:29:06.596Z,2.13
2022-08-22T04:31:38.517Z,2.60
2022-08-22T04:34:18.215Z,2.50
2022-08-22T04:36:52.370Z,2.38
2022-08-22T04:39:30.595Z,3.25
2022-08-22T04:42:06.951Z,2.38
2022-08-22T04:44:49.890Z,2.90
2022-08-22T04:47:54.005Z,2.58
2022-08-22T04:50:43.213Z,2.60
2022-08-22T04:53:28.534Z,3.05
2022-08-22T04:56:15.444Z,2.88
2022-08-22T04:58:48.395Z,2.85
2022-08-22T05:01:26.274Z,2.30
2022-08-22T05:03:59.355Z,2.60
2022-08-22T05:06:28.661Z,2.55
2022-08-22T05:08:56.392Z,2.75
2022-08-22T05:11:23.685Z,2.80
2022-08-22T05:14:00.015Z,2.80
2022-08-22T05:16:28.924Z,2.80
2022-08-22T05:18:59.525Z,2.30
2022-08-22T05:21:29.710Z,2.95
2022-08-22T05:23:59.464Z,2.38
2022-08-22T05:26:27.899Z,2.58
2022-08-22T05:28:58.011Z,2.42
2022-08-22T05:31:30.294Z,2.47
2022-08-22T05:34:00.978Z,2.25
2022-08-22T05:36:29.140Z,2.90
2022-08-22T05:39:00.607Z,2.50
2022-08-22T05:41:28.891Z,2.65
2022-08-22T05:43:55.559Z,2.80
2022-08-22T05:46:26.793Z,2.42
2022-08-22T05:48:58.639Z,3.20
2022-08-22T05:51:29.529Z,3.05
2022-08-22T05:54:09.393Z,3.17
2022-08-22T05:56:38.542Z,2.80
2022-08-22T05:59:12.224Z,3.65
2022-08-22T06:01:46.254Z,3.22
2022-08-22T06:04:28.465Z,3.60
2022-08-22T06:07:09.972Z,3.03
2022-08-22T06:10:01.473Z,3.67
2022-08-22T06:12:34.727Z,3.38
2022-08-22T06:15:16.963Z,3.13
2022-08-22T06:17:51.823Z,3.60
2022-08-22T06:20:20.399Z,3.63
2022-08-22T06:22:51.634Z,3.13
2022-08-22T06:25:22.178Z,3.25
2022-08-22T06:27:49.587Z,3.17
2022-08-22T06:30:17.226Z,3.05
2022-08-22T06:32:59.175Z,4.07
2022-08-22T06:35:52.928Z,3.70
2022-08-22T06:38:20.357Z,3.47
2022-08-22T06:40:48.103Z,3.53
2022-08-22T06:43:15.626Z,3.25
2022-08-22T06:45:42.634Z,3.30
2022-08-22T06:48:09.444Z,3.53
2022-08-22T06:50:37.594Z,3.35
2022-08-22T06:53:05.411Z,3.20
2022-08-22T06:55:32.362Z,3.50
2022-08-22T06:58:00.973Z,3.53
2022-08-22T07:00:27.976Z,3.70
2022-08-22T07:03:07.165Z,3.38
2022-08-22T07:05:39.260Z,3.63
2022-08-22T07:08:10.891Z,3.30
2022-08-22T07:10:40.999Z,4.03
2022-08-22T07:13:14.023Z,3.47
2022-08-22T07:15:42.616Z,3.35
2022-08-22T07:18:16.906Z,3.58
2022-08-22T07:20:47.519Z,3.13
2022-08-22T07:23:24.692Z,3.65
2022-08-22T07:25:58.463Z,3.28
2022-08-22T07:28:37.110Z,4.03
2022-08-22T07:31:14.689Z,3.80
2022-08-22T07:33:55.531Z,3.40
2022-08-22T07:36:34.146Z,3.85
2022-08-22T07:39:07.429Z,3.42
2022-08-22T07:41:58.146Z,3.45
2022-08-22T07:44:26.938Z,3.90
2022-08-22T07:47:15.365Z,3.92
2022-08-22T07:49:45.903Z,3.83
2022-08-22T07:52:17.133Z,3.13
2022-08-22T07:54:49.698Z,3.83
2022-08-22T07:57:21.266Z,3.47
2022-08-22T07:59:58.188Z,3.20
2022-08-22T08:02:25.090Z,3.67
2022-08-22T08:04:53.606Z,2.80
2022-08-22T08:07:22.289Z,3.25
2022-08-22T08:10:21.464Z,3.78
2022-08-22T08:12:52.652Z,2.90
2022-08-22T08:15:27.267Z,2.92
2022-08-22T08:17:58.330Z,3.17
2022-08-22T08:20:26.289Z,3.05
2022-08-22T08:22:54.971Z,2.88
2022-08-22T08:25:23.521Z,2.53
2022-08-22T08:28:10.012Z,2.90
2022-08-22T08:30:46.871Z,2.80
2022-08-22T08:33:25.396Z,2.70
2022-08-22T08:36:12.737Z,2.50
2022-08-22T08:38:59.681Z,2.55
2022-08-22T08:41:33.860Z,2.28
2022-08-22T08:44:13.729Z,2.58
2022-08-22T08:46:59.011Z,3.65
2022-08-22T08:49:35.097Z,3.35
2022-08-22T08:52:12.327Z,2.90
2022-08-22T08:54:45.399Z,2.95
2022-08-22T08:57:21.803Z,2.97
2022-08-22T09:00:01.504Z,3.30
2022-08-22T09:02:35.134Z,3.05
2022-08-22T09:05:03.535Z,3.30
2022-08-22T09:07:50.569Z,2.65
2022-08-22T09:10:32.915Z,3.00
2022-08-22T09:13:11.585Z,3.25
2022-08-22T09:16:04.528Z,3.25
2022-08-22T09:18:32.098Z,3.58
2022-08-22T09:21:07.917Z,2.95
2022-08-22T09:23:38.407Z,2.83
2022-08-22T09:26:24.387Z,3.97
2022-08-22T09:28:59.992Z,3.40
2022-08-22T09:31:48.279Z,3.17
2022-08-22T09:34:29.466Z,2.95
2022-08-22T09:36:56.134Z,3.20
2022-08-22T09:39:31.895Z,3.40
2022-08-22T09:42:10.582Z,3.10
2022-08-22T09:44:56.669Z,3.67
2022-08-22T09:47:27.185Z,3.00
2022-08-22T09:50:08.558Z,3.38
2022-08-22T09:52:51.863Z,2.95
2022-08-22T09:55:34.998Z,3.40
2022-08-22T09:58:14.887Z,3.15
2022-08-22T10:00:58.884Z,3.63
2022-08-22T10:03:48.974Z,3.30
2022-08-22T10:06:21.788Z,2.88
2022-08-22T10:09:03.852Z,3.35
2022-08-22T10:11:33.553Z,2.90
2022-08-22T10:14:11.407Z,3.15
2022-08-22T10:16:47.441Z,2.97
2022-08-22T10:19:33.865Z,3.00
2022-08-22T10:22:00.582Z,2.97
2022-08-22T10:24:45.885Z,3.17
2022-08-22T10:27:38.308Z,2.75
2022-08-22T10:30:19.628Z,2.60
2022-08-22T10:32:51.465Z,2.42
2022-08-22T10:35:21.098Z,3.25
2022-08-22T10:38:03.239Z,2.88
2022-08-22T10:40:42.637Z,2.38
2022-08-22T10:43:12.965Z,2.92
2022-08-22T10:45:40.990Z,2.60
2022-08-22T10:48:10.816Z,2.78
2022-08-22T10:50:46.805Z,2.72
2022-08-22T10:53:30.143Z,2.40
2022-08-22T10:56:03.678Z,3.17
2022-08-22T10:58:34.807Z,2.60
2022-08-22T11:01:37.134Z,3.05
2022-08-22T11:04:01.564Z,2.63
2022-08-22T11:06:45.383Z,2.45
2022-08-22T11:09:36.882Z,2.35
2022-08-22T11:12:19.531Z,2.40
2022-08-22T11:15:12.970Z,3.67
2022-08-22T11:17:59.086Z,2.78
2022-08-22T11:20:32.528Z,3.05
2022-08-22T11:23:05.380Z,2.65
2022-08-22T11:25:38.671Z,2.28
2022-08-22T11:28:11.915Z,2.63
2022-08-22T11:30:53.911Z,2.20
2022-08-22T11:33:32.498Z,2.90
2022-08-22T11:36:27.841Z,2.17
2022-08-22T11:39:24.007Z,1.92
2022-08-22T11:41:57.832Z,2.33
2022-08-22T11:44:31.301Z,2.55
2022-08-22T11:47:00.002Z,2.38
2022-08-22T11:49:45.405Z,2.20
2022-08-22T11:52:32.381Z,2.17
2022-08-22T11:55:17.658Z,2.13
2022-08-22T11:57:48.900Z,2.25
2022-08-22T12:00:26.325Z,2.10
2022-08-22T12:03:12.979Z,2.58
2022-08-22T12:05:45.867Z,2.13
2022-08-22T12:08:12.614Z,2.33
2022-08-22T12:11:01.528Z,2.30
2022-08-22T12:13:34.798Z,2.05
2022-08-22T12:16:14.438Z,2.45
2022-08-22T12:18:59.516Z,2.10
2022-08-22T12:21:32.470Z,2.20
2022-08-22T12:24:11.164Z,1.90
2022-08-22T12:27:01.594Z,2.47
2022-08-22T12:29:33.791Z,2.30
2022-08-22T12:32:07.145Z,2.20
2022-08-22T12:34:53.880Z,2.10
2022-08-22T12:37:26.940Z,2.05
2022-08-22T12:40:00.250Z,2.83
2022-08-22T12:42:29.845Z,1.90
2022-08-22T12:45:15.213Z,2.53
2022-08-22T12:47:48.026Z,1.90
2022-08-22T12:50:14.639Z,2.13
2022-08-22T12:53:02.558Z,2.30
2022-08-22T12:55:55.587Z,2.17
2022-08-22T12:58:37.315Z,2.13
2022-08-22T13:01:06.476Z,2.00
2022-08-22T13:03:41.113Z,2.10
2022-08-22T13:06:26.503Z,2.15
2022-08-22T13:08:54.416Z,2.08
2022-08-22T13:11:23.649Z,2.10
2022-08-22T13:13:59.125Z,2.35
2022-08-22T13:16:34.065Z,2.10
2022-08-22T13:19:13.664Z,2.15
2022-08-22T13:21:44.814Z,2.20
2022-08-22T13:24:16.824Z,2.25
2022-08-22T13:26:54.606Z,2.35
2022-08-22T13:29:26.615Z,2.30
2022-08-22T13:32:00.476Z,2.20
2022-08-22T13:34:45.982Z,2.33
2022-08-22T13:37:15.580Z,2.33
2022-08-22T13:39:43.894Z,2.00
2022-08-22T13:42:30.987Z,2.28
2022-08-22T13:44:59.817Z,2.35
2022-08-22T13:47:31.850Z,2.10
2022-08-22T13:50:07.715Z,2.50
2022-08-22T13:52:38.038Z,1.75
2022-08-22T13:55:29.412Z,1.98
2022-08-22T13:57:56.710Z,2.10
2022-08-22T14:00:48.672Z,1.90
2022-08-22T14:03:28.251Z,2.17
2022-08-22T14:05:58.831Z,2.30
2022-08-22T14:08:35.445Z,2.20
2022-08-22T14:11:08.671Z,1.95
2022-08-22T14:13:39.351Z,2.10
2022-08-22T14:16:10.383Z,2.28
2022-08-22T14:18:48.319Z,2.05
2022-08-22T14:21:40.732Z,2.03
2022-08-22T14:24:10.861Z,2.00
2022-08-22T14:26:47.375Z,2.20
2022-08-22T14:29:16.541Z,2.58
2022-08-22T14:31:55.102Z,2.42
2022-08-22T14:34:22.322Z,1.83
2022-08-22T14:36:53.246Z,1.98
2022-08-22T14:39:27.350Z,1.98
2022-08-22T14:42:03.473Z,1.98
2022-08-22T14:44:37.683Z,2.40
2022-08-22T14:47:32.202Z,2.13
2022-08-22T14:49:56.291Z,2.05
2022-08-22T14:52:31.636Z,2.28
2022-08-22T14:55:08.397Z,2.20
2022-08-22T14:57:37.493Z,2.40
2022-08-22T15:00:11.542Z,2.00
2022-08-22T15:02:38.640Z,2.17
2022-08-22T15:05:14.559Z,2.25
2022-08-22T15:07:41.309Z,2.28
2022-08-22T15:10:12.188Z,1.95
2022-08-22T15:12:40.828Z,2.00
2022-08-22T15:15:15.096Z,1.95
2022-08-22T15:17:46.421Z,1.90
2022-08-22T15:20:49.027Z,2.92
2022-08-22T15:23:19.228Z,2.00
2022-08-22T15:25:56.246Z,2.05
2022-08-22T15:28:24.066Z,2.30
2022-08-22T15:31:05.474Z,2.00
2022-08-22T15:33:43.475Z,2.15
2022-08-22T15:36:12.151Z,2.33
2022-08-22T15:38:47.909Z,2.25
2022-08-22T15:41:24.130Z,1.83
2022-08-22T15:44:14.814Z,2.17
2022-08-22T15:46:59.839Z,1.88
2022-08-22T15:49:31.693Z,2.65
2022-08-22T15:52:01.412Z,2.30
2022-08-22T15:54:31.871Z,2.33
2022-08-22T15:57:07.411Z,2.08
2022-08-22T15:59:53.596Z,2.58
2022-08-22T16:02:27.233Z,2.10
2022-08-22T16:05:18.763Z,2.40
2022-08-22T16:07:57.703Z,2.08
2022-08-22T16:10:24.390Z,1.90
2022-08-22T16:13:09.339Z,2.13
2022-08-22T16:15:50.328Z,2.35
2022-08-22T16:18:39.107Z,2.63
2022-08-22T16:21:05.999Z,2.45
2022-08-22T16:23:54.183Z,2.13
2022-08-22T16:26:22.554Z,2.15
2022-08-22T16:28:59.271Z,2.20
2022-08-22T16:31:28.867Z,2.28
2022-08-22T16:33:57.417Z,2.50
2022-08-22T16:36:24.202Z,2.25
2022-08-22T16:38:52.940Z,2.33
2022-08-22T16:41:40.815Z,2.20
2022-08-22T16:44:13.626Z,2.80
2022-08-22T16:46:43.418Z,2.00
2022-08-22T16:49:10.814Z,2.33
2022-08-22T16:51:57.392Z,2.65
2022-08-22T16:54:44.727Z,2.42
2022-08-22T16:57:26.697Z,2.20
2022-08-22T17:00:22.954Z,2.22
2022-08-22T17:03:08.802Z,2.33
2022-08-22T17:05:42.909Z,2.70
2022-08-22T17:08:24.846Z,2.28
2022-08-22T17:10:57.703Z,2.20
2022-08-22T17:13:28.880Z,2.13
2022-08-22T17:16:03.170Z,2.72
2022-08-22T17:18:36.017Z,2.65
2022-08-22T17:21:10.327Z,2.20
2022-08-22T17:23:52.386Z,2.05
2022-08-22T17:26:30.903Z,2.70
2022-08-22T17:29:04.136Z,2.40
2022-08-22T17:31:49.446Z,2.08
2022-08-22T17:34:25.922Z,2.40
2022-08-22T17:36:55.587Z,3.28
2022-08-22T17:39:34.091Z,2.90
2022-08-22T17:42:10.204Z,2.80
2022-08-22T17:45:06.284Z,2.65
2022-08-22T17:47:39.189Z,2.30
2022-08-22T17:50:10.898Z,2.70
2022-08-22T17:52:42.625Z,2.60
2022-08-22T17:55:24.743Z,2.40
2022-08-22T17:57:55.828Z,2.30
2022-08-22T18:00:30.086Z,2.42
2022-08-22T18:03:00.664Z,2.10
2022-08-22T18:05:32.526Z,2.50
2022-08-22T18:08:06.368Z,2.22
2022-08-22T18:10:53.581Z,2.78
2022-08-22T18:13:39.003Z,2.20
2022-08-22T18:16:11.875Z,2.40
2022-08-22T18:18:48.205Z,2.78
2022-08-22T18:21:22.736Z,2.50
2022-08-22T18:23:54.412Z,2.50
2022-08-22T18:26:44.116Z,2.70
2022-08-22T18:29:16.189Z,2.50
2022-08-22T18:31:51.702Z,2.40
2022-08-22T18:34:22.222Z,2.33
2022-08-22T18:36:56.173Z,2.15
2022-08-22T18:39:29.104Z,2.47
2022-08-22T18:42:05.167Z,2.30
2022-08-22T18:44:36.359Z,2.83
2022-08-22T18:47:14.333Z,2.60
2022-08-22T18:49:43.263Z,2.22
2022-08-22T18:52:11.059Z,2.42
2022-08-22T18:54:43.760Z,2.42
2022-08-22T18:57:22.611Z,2.58
2022-08-22T19:00:28.264Z,2.28
2022-08-22T19:02:57.819Z,2.15
2022-08-22T19:05:24.549Z,2.30
2022-08-22T19:08:00.957Z,3.00
2022-08-22T19:10:40.962Z,2.92
2022-08-22T19:13:22.952Z,2.53
2022-08-22T19:15:57.552Z,2.45
2022-08-22T19:18:24.251Z,2.72
2022-08-22T19:21:28.716Z,2.75
2022-08-22T19:23:55.782Z,2.70
2022-08-22T19:26:25.775Z,2.72
2022-08-22T19:28:53.977Z,2.53
2022-08-22T19:31:42.881Z,2.50
2022-08-22T19:34:18.786Z,2.90
2022-08-22T19:36:46.320Z,2.70
2022-08-22T19:39:31.615Z,2.60
2022-08-22T19:41:59.580Z,2.50
2022-08-22T19:44:26.232Z,2.80
2022-08-22T19:47:05.394Z,3.08
2022-08-22T19:49:37.273Z,3.05
2022-08-22T19:52:16.177Z,2.65
2022-08-22T19:54:47.532Z,2.88
2022-08-22T19:57:33.167Z,2.83
2022-08-22T20:00:14.377Z,2.95
2022-08-22T20:03:03.023Z,3.20
2022-08-22T20:05:38.832Z,2.50
2022-08-22T20:08:11.508Z,2.83
2022-08-22T20:10:41.338Z,3.00
2022-08-22T20:13:18.636Z,3.10
2022-08-22T20:16:04.048Z,2.72
2022-08-22T20:18:55.633Z,2.90
2022-08-22T20:21:39.038Z,2.88
2022-08-22T20:24:08.092Z,2.55
2022-08-22T20:26:51.972Z,2.85
2022-08-22T20:29:28.419Z,2.88
2022-08-22T20:31:58.671Z,2.63
2022-08-22T20:34:29.141Z,2.90
2022-08-22T20:37:22.712Z,2.80
2022-08-22T20:40:02.831Z,2.80
2022-08-22T20:42:33.332Z,2.75
2022-08-22T20:45:00.873Z,2.70
2022-08-22T20:47:39.607Z,2.85
2022-08-22T20:50:10.375Z,2.40
2022-08-22T20:52:38.970Z,2.70
2022-08-22T20:55:11.869Z,3.00
2022-08-22T20:58:04.890Z,3.20
2022-08-22T21:00:34.134Z,2.75
2022-08-22T21:03:07.603Z,2.97
2022-08-22T21:05:37.980Z,2.72
2022-08-22T21:08:04.822Z,2.60
2022-08-22T21:10:50.708Z,3.15
2022-08-22T21:13:28.360Z,2.90
2022-08-22T21:15:59.962Z,2.80
2022-08-22T21:18:26.610Z,2.80
2022-08-22T21:20:53.356Z,2.88
2022-08-22T21:23:20.195Z,2.92
2022-08-22T21:25:50.821Z,3.10
2022-08-22T21:28:50.252Z,2.78
2022-08-22T21:31:28.397Z,2.53
2022-08-22T21:33:55.951Z,2.92
2022-08-22T21:36:25.376Z,2.95
2022-08-22T21:38:57.793Z,2.70
2022-08-22T21:41:25.885Z,2.97
2022-08-22T21:43:53.947Z,2.90
2022-08-22T21:46:25.966Z,2.45
2022-08-22T21:49:01.113Z,2.78
2022-08-22T21:51:27.924Z,2.65
2022-08-22T21:54:18.476Z,2.90
2022-08-22T21:56:45.974Z,2.50
2022-08-22T21:59:52.023Z,2.97
2022-08-22T22:02:36.810Z,2.60
2022-08-22T22:05:05.964Z,3.28
2022-08-22T22:07:35.530Z,3.08
2022-08-22T22:10:02.338Z,2.70
2022-08-22T22:12:29.039Z,2.80
2022-08-22T22:14:55.698Z,2.78
2022-08-22T22:17:22.322Z,2.80
2022-08-22T22:19:49.533Z,3.08
2022-08-22T22:22:17.073Z,3.03
2022-08-22T22:24:43.729Z,2.75
2022-08-22T22:27:14.940Z,2.85
2022-08-22T22:29:43.618Z,2.75
2022-08-22T22:32:10.367Z,2.60
2022-08-22T22:34:39.144Z,2.65
2022-08-22T22:37:08.164Z,2.70
2022-08-22T22:39:35.890Z,2.90
2022-08-22T22:42:02.889Z,2.50
2022-08-22T22:44:29.658Z,2.63
2022-08-22T22:46:57.189Z,2.67
2022-08-22T22:49:23.971Z,2.78
2022-08-22T22:51:50.831Z,2.50
2022-08-22T22:54:17.597Z,3.35
2022-08-22T22:56:44.258Z,2.35
2022-08-22T22:59:15.021Z,2.65
2022-08-22T23:02:01.781Z,2.72
2022-08-22T23:04:29.002Z,2.47
2022-08-22T23:06:55.868Z,2.70
2022-08-22T23:09:37.969Z,2.92
2022-08-22T23:12:06.024Z,3.13
2022-08-22T23:14:33.373Z,2.65
2022-08-22T23:16:59.996Z,3.10
2022-08-22T23:19:27.100Z,2.45
2022-08-22T23:21:57.478Z,2.25
2022-08-22T23:24:24.356Z,2.40
2022-08-22T23:26:51.179Z,2.67
2022-08-22T23:29:17.866Z,2.40
2022-08-22T23:31:50.255Z,2.33
2022-08-22T23:34:18.414Z,3.38
2022-08-22T23:36:45.957Z,2.58
2022-08-22T23:39:14.016Z,2.47
2022-08-22T23:41:40.988Z,2.70
2022-08-22T23:44:08.942Z,2.30
2022-08-22T23:46:40.983Z,2.47
2022-08-22T23:49:07.866Z,2.67
2022-08-22T23:51:35.244Z,2.42
2022-08-22T23:54:02.308Z,2.70
2022-08-22T23:56:33.773Z,2.55
2022-08-22T23:59:01.361Z,2.70
